• Join FlightAware (Why Join?)
  • Login
  • US Flag 
03:43AM EST


 

Airport Tracker/Info


-or-


 

Live Flight TrackerFlight Track Log ✈ JBU33 ✈ 16-Aug-2013 ✈ KBTV - KJFK

Flight Track Log - Related Links

Times and Time Zones

All times are in EDT time to prevent confusion due to time zone crossing. See the JBU33 flight status page for this flight to view local times or setup timezone preferences in your user account.

Time Position Orientation Groundspeed Altitude Reporting Facility
EDT Latitude Longitude Course Direction KTS MPH feet Rate Location/Type
01:13PM 44.3175 -73.1394 196° South 283 326 6,400  Level Boston Center
01:14PM 44.1567 -73.2663 195° South  Level FlightAware Approximate
01:14PM 44.2633 -73.1647 198° South 289 333 9,300  Level Boston Center
01:15PM 44.0787 -73.2955 195° South  Level FlightAware Approximate
01:15PM 44.1650 -73.1983 194° South 289 333 12,500  Level Boston Center
01:16PM 44.0003 -73.3222 194° South  Level FlightAware Approximate
01:16PM 44.0817 -73.2203 191° South 332 382 14,900  Level Boston Center
01:17PM 43.9462 -73.3402 193° South  Level FlightAware Approximate
01:17PM 43.9833 -73.2481 191° South 350 403 17,400  Level Boston Center
01:18PM 43.8925 -73.3597 196° South  Level FlightAware Approximate
01:18PM 43.8833 -73.2725 190° South 372 428 19,600  Level Boston Center
01:19PM 43.7808 -73.3000 191° South 377 434 21,800 2,040 Climbing Boston Center
01:20PM 43.6744 -73.3300 192° South 382 440 23,700 1,860 Climbing Boston Center
01:21PM 43.5639 -73.3542 189° South 394 453 25,600 1,740 Climbing Boston Center
01:22PM 43.4531 -73.3811 190° South 400 460 27,500 1,080 Climbing Boston Center
01:23PM 43.3153 -73.4161 190° South 412 474 28,000 240 Climbing Boston Center
01:24PM 43.2006 -73.4456 191° South 417 480 28,000  Level Boston Center
01:25PM 43.0708 -73.4775 190° South 424 488 28,000  Level Boston Center
01:26PM 42.9539 -73.5094 191° South 429 494 28,000  Level Boston Center
01:27PM 42.8264 -73.5442 191° South 435 501 28,000  Level Boston Center
01:28PM 42.7053 -73.5731 190° South 435 501 28,000  Level Boston Center
01:29PM 42.5842 -73.6047 191° South 435 501 28,000  Level Boston Center
01:30PM 42.4378 -73.6386 190° South 440 506 28,000  Level Boston Center
01:31PM 42.3167 -73.6614 188° South 445 512 28,000  Level Boston Center
01:32PM 42.1956 -73.6956 192° South 445 512 28,000  Level Boston Center
01:33PM 42.0700 -73.7294 191° South 452 520 28,000 -60 Level Boston Center
01:34PM 41.9489 -73.7606 191° South 452 520 27,900 -2,040 Descending Boston Center
01:36PM 41.7244 -73.8089 189° South 417 480 22,100 -2,700 Descending New York Center
01:37PM 41.6047 -73.8450 193° South 405 466 20,000 -1,080 Descending New York Center
01:38PM 41.5208 -73.9436 221° Southwest 397 457 20,000  Level New York Center
01:39PM 41.4311 -74.0281 215° Southwest 393 452 20,000  Level New York Center
01:40PM 41.3325 -74.0592 193° South 399 459 20,000  Level New York Center
01:41PM 41.2214 -74.0811 188° South 405 466 20,000 -120 Level New York Center
01:42PM 41.1083 -74.1031 188° South 410 472 19,800 -540 Descending New York Center
01:43PM 40.9889 -74.1247 188° South 410 472 19,000 -420 Descending New York Center
01:44PM 40.9086 -74.0933 164° South 349 402 19,000  Level New York Center
01:45PM 40.8667 -74.0167 126° Southeast 355 409 19,000 -960 Level New York TRACON
01:46PM 40.8167 -73.9333 128° Southeast 348 400 17,600 -1,680 Descending New York TRACON
01:47PM 40.7667 -73.8167 119° Southeast 342 394 15,900 -1,800 Descending New York TRACON
01:48PM 40.7000 -73.7333 137° Southeast 339 390 14,100 -2,100 Descending New York TRACON
01:49PM 40.6167 -73.7000 163° South 373 429 11,700 -2,280 Descending New York TRACON
01:50PM 40.5500 -73.6667 159° South 282 325 9,600 -2,160 Descending New York TRACON
01:51PM 40.4667 -73.6333 163° South 279 321 7,400 -2,220 Descending New York TRACON
01:52PM 40.4000 -73.6167 169° South 279 321 5,200 -1,980 Descending New York TRACON
01:52PM 40.3703 -73.6478 219° Southwest 241 277 4,400 -840 Descending New York Center
01:53PM 40.3431 -73.7447 250° West 240 276 4,000 -240 Descending New York Center
01:54PM 40.3283 -73.8311 257° West 246 283 4,000  Level New York Center
01:55PM 40.3261 -73.9072 268° West 231 266 4,000  Level New York Center
01:56PM 40.3494 -73.9736 295° West 211 243 4,000  Level New York Center
01:57PM 40.3817 -74.0189 313° West 183 211 4,000 -120 Level New York Center
01:58PM 40.4356 -74.0267 354° North 170 196 3,800 -420 Descending New York Center
02:00PM 40.5000 -73.9833 27° Northeast 173 199 3,000 -360 Descending New York TRACON
02:01PM 40.5333 -73.9500 37° Northeast 171 197 3,000  Level New York TRACON
02:02PM 40.5833 -73.9167 27° Northeast 173 199 3,000 -480 Level New York TRACON
02:03PM 40.6167 -73.8833 37° Northeast 166 191 2,100 -900 Descending New York TRACON
02:04PM 40.6500 -73.8667 21° North 145 167 1,300 -780 Descending New York TRACON
02:05PM 40.6667 -73.8167 66° East 140 161 600 -720 Descending New York TRACON